Terminal Aerodrome Forecast
Issued by NWS Shreveport, LA

Home | Current Version | Previous Version | Text Only | Print | Product List | Glossary On
Versions: 1 2 3 4 5 6 7 8 9 10 11 12 13 14 15 16 17 18 19 20 21 22 23 24 25 26
946
FTUS44 KSHV 272331
TAFSHV
TAF
KSHV 272331Z 2800/2824 VRB05KT P6SM VCTS SCT050CB SCT100 BKN250
     FM280300 VRB04KT P6SM SCT060 SCT120 BKN250
     FM280900 VRB03KT P6SM VCSH FEW060 BKN100 BKN250
      TEMPO 2810/2814 5SM -SHRA BR OVC050
     FM281400 VRB05KT P6SM VCSH SCT025 BKN050 OVC140
     FM281800 VRB06KT P6SM VCTS BKN040CB BKN100 OVC250=

USA.gov is the U.S. government's official web portal to all federal, state and local government web resources and services.